Harahan, Louisiana
Current Conditions -  °F | °C
As of 2:53 AM on Sunday 21 Dec 2014 (Local Time) from KMSY Reporting Station
Overcast Overcast  
Wind Chill: 53°   Ceiling: 1100
Heat Index: 53°   Visibility: 10mi
Dew Point: 48°   Wind: 7mph
Humidity: 83%   Direction: 70°ENE
Pressure: 30.13"   Gusts: NA
Location:  29.9536°N, 90.2034°W
Report Text: KMSY 210853Z 07006KT 10SM OVC011 12/09 A3013 RMK AO2 SLP205 T01170089 55010
Loading
Personal Weather Stations






























Interactive Weather Map New forecast layout! Learn more

10-Day Weather Forecast

Advertisements
Track Severe Weather on mobile